createdAt,value
2023-07-30T01:00:59.544Z,15.12
2023-07-30T01:03:29.147Z,15.08
2023-07-30T01:06:11.791Z,15.07
2023-07-30T01:11:46.015Z,15.03
2023-07-30T01:14:20.013Z,14.92
2023-07-30T01:19:57.722Z,14.89
2023-07-30T01:22:27.626Z,14.92
2023-07-30T01:25:00.046Z,14.91
2023-07-30T01:27:48.328Z,14.92
2023-07-30T01:43:34.687Z,15.10
2023-07-30T01:46:03.700Z,15.05
2023-07-30T01:51:36.853Z,15.07
2023-07-30T01:54:08.306Z,15.00
2023-07-30T01:56:38.102Z,14.82
2023-07-30T02:05:03.769Z,14.91
2023-07-30T02:07:40.377Z,15.02
2023-07-30T02:33:39.633Z,14.92
2023-07-30T02:38:57.173Z,14.92
2023-07-30T02:44:21.777Z,14.89
2023-07-30T02:46:52.391Z,14.76
2023-07-30T02:49:22.946Z,14.89
2023-07-30T02:51:57.466Z,14.77
2023-07-30T02:54:27.640Z,14.79
2023-07-30T02:57:03.732Z,14.81
2023-07-30T03:05:32.438Z,14.81
2023-07-30T03:14:08.056Z,14.88
2023-07-30T03:16:36.782Z,14.83
2023-07-30T03:19:05.588Z,14.87
2023-07-30T03:30:16.487Z,14.74
2023-07-30T03:39:08.133Z,14.67
2023-07-30T04:59:06.700Z,15.20
2023-07-30T05:04:25.683Z,15.58
2023-07-30T05:06:53.668Z,15.39
2023-07-30T05:09:21.729Z,15.36
2023-07-30T05:24:35.989Z,16.28
2023-07-30T05:36:51.765Z,16.28
2023-07-30T05:39:22.666Z,16.41
2023-07-30T06:00:06.355Z,17.27
2023-07-30T06:02:45.660Z,17.27
2023-07-30T06:18:06.109Z,18.14
2023-07-30T06:20:34.679Z,18.43
2023-07-30T06:25:48.617Z,18.21
2023-07-30T06:31:07.841Z,18.72
2023-07-30T06:33:35.138Z,19.09
2023-07-30T06:36:03.166Z,18.89
2023-07-30T06:38:30.232Z,18.95
2023-07-30T06:40:58.940Z,18.96
2023-07-30T06:43:25.944Z,19.31
2023-07-30T06:45:54.389Z,19.25
2023-07-30T06:48:24.352Z,19.26
2023-07-30T06:50:51.574Z,19.21
2023-07-30T06:53:18.734Z,19.57
2023-07-30T06:55:46.020Z,19.78
2023-07-30T06:58:14.622Z,20.00
2023-07-30T07:00:41.813Z,19.82
2023-07-30T07:03:08.979Z,20.17
2023-07-30T07:05:35.915Z,20.66
2023-07-30T07:08:03.407Z,21.05
2023-07-30T07:10:30.555Z,21.06
2023-07-30T07:13:05.893Z,21.46
2023-07-30T07:15:34.234Z,21.26
2023-07-30T07:18:01.411Z,21.24
2023-07-30T07:20:39.587Z,20.85
2023-07-30T07:23:07.101Z,20.89
2023-07-30T07:25:34.035Z,20.77
2023-07-30T07:37:11.874Z,20.55
2023-07-30T07:39:40.649Z,20.19
2023-07-30T07:42:33.743Z,20.73
2023-07-30T07:45:04.892Z,20.32
2023-07-30T07:53:27.069Z,20.97
2023-07-30T07:55:54.517Z,20.95
2023-07-30T07:58:21.586Z,20.54
2023-07-30T08:00:48.700Z,21.24
2023-07-30T08:20:41.949Z,20.92
2023-07-30T08:23:08.796Z,21.62
2023-07-30T08:25:39.766Z,21.73
2023-07-30T08:28:15.801Z,21.53
2023-07-30T08:30:48.611Z,21.18
2023-07-30T08:33:16.222Z,20.96
2023-07-30T08:36:01.136Z,20.64
2023-07-30T08:38:29.692Z,20.74
2023-07-30T08:40:56.429Z,20.52
2023-07-30T08:43:23.290Z,20.98
2023-07-30T08:45:50.140Z,21.02
2023-07-30T08:48:16.957Z,20.59
2023-07-30T08:50:45.706Z,20.24
2023-07-30T08:53:18.856Z,19.43
2023-07-30T08:56:16.256Z,18.71
2023-07-30T08:58:52.506Z,18.75
2023-07-30T09:01:23.901Z,18.88
2023-07-30T09:04:08.832Z,19.25
2023-07-30T09:06:56.114Z,19.64
2023-07-30T09:09:43.502Z,19.85
2023-07-30T09:12:16.878Z,20.04
2023-07-30T09:14:52.781Z,20.40
2023-07-30T09:17:28.881Z,20.82
2023-07-30T09:20:07.082Z,21.40
2023-07-30T09:22:45.574Z,21.77
2023-07-30T09:25:17.608Z,22.10
2023-07-30T09:27:50.785Z,22.86
2023-07-30T09:30:25.787Z,23.38
2023-07-30T09:32:58.326Z,23.55
2023-07-30T09:35:29.256Z,23.36
2023-07-30T09:38:01.316Z,22.74
2023-07-30T09:40:40.171Z,22.88
2023-07-30T09:43:12.862Z,23.49
2023-07-30T09:45:54.732Z,22.92
2023-07-30T09:48:32.877Z,23.42
2023-07-30T09:51:03.520Z,22.71
2023-07-30T09:53:36.439Z,22.45
2023-07-30T09:56:09.739Z,21.78
2023-07-30T09:58:38.933Z,22.44
2023-07-30T10:01:06.825Z,22.23
2023-07-30T10:03:36.933Z,21.81
2023-07-30T10:06:04.882Z,22.03
2023-07-30T10:08:37.067Z,21.48
2023-07-30T10:11:06.781Z,22.28
2023-07-30T10:13:33.994Z,22.23
2023-07-30T10:16:00.733Z,22.35
2023-07-30T10:18:44.637Z,21.98
2023-07-30T10:21:23.078Z,22.39
2023-07-30T10:24:03.282Z,22.26
2023-07-30T10:26:37.973Z,22.93
2023-07-30T10:29:16.028Z,21.77
2023-07-30T10:31:45.115Z,21.76
2023-07-30T10:34:12.734Z,21.73
2023-07-30T10:36:45.828Z,21.46
2023-07-30T10:39:39.256Z,18.98
2023-07-30T10:42:08.211Z,17.26
2023-07-30T10:44:36.402Z,16.41
2023-07-30T10:47:05.373Z,16.34
2023-07-30T10:49:39.125Z,15.14
2023-07-30T10:52:05.946Z,15.24
2023-07-30T10:54:38.284Z,14.71
2023-07-30T10:57:11.962Z,14.90
2023-07-30T10:59:39.020Z,15.28
2023-07-30T11:02:06.349Z,15.37
2023-07-30T11:04:36.204Z,15.68
2023-07-30T11:07:05.280Z,15.68
2023-07-30T11:09:38.571Z,15.56
2023-07-30T11:12:10.131Z,15.53
2023-07-30T11:14:36.784Z,15.67
2023-07-30T11:17:04.088Z,15.40
2023-07-30T11:19:32.393Z,15.78
2023-07-30T11:21:59.825Z,16.27
2023-07-30T11:24:39.677Z,16.12
2023-07-30T11:27:14.631Z,16.59
2023-07-30T11:29:46.436Z,16.52
2023-07-30T11:32:16.457Z,17.03
2023-07-30T11:34:45.104Z,16.48
2023-07-30T11:37:12.068Z,16.72
2023-07-30T11:39:39.518Z,16.74
2023-07-30T11:42:06.896Z,16.69
2023-07-30T11:44:39.414Z,17.16
2023-07-30T11:47:13.521Z,17.38
2023-07-30T11:49:43.573Z,17.21
2023-07-30T11:52:12.233Z,17.73
2023-07-30T11:54:39.440Z,17.82
2023-07-30T11:57:06.759Z,17.99
2023-07-30T11:59:34.073Z,17.42
2023-07-30T12:02:01.222Z,18.11
2023-07-30T12:04:44.932Z,17.41
2023-07-30T12:07:11.805Z,17.29
2023-07-30T12:09:39.437Z,17.44
2023-07-30T12:12:07.275Z,17.41
2023-07-30T12:14:55.157Z,17.60
2023-07-30T12:17:24.634Z,17.60
2023-07-30T12:19:51.521Z,17.00
2023-07-30T12:22:18.160Z,16.88
2023-07-30T12:24:44.932Z,16.64
2023-07-30T12:27:11.823Z,17.03
2023-07-30T12:29:38.903Z,17.33
2023-07-30T12:32:05.941Z,17.32
2023-07-30T12:34:33.109Z,17.06
2023-07-30T12:37:01.271Z,17.17
2023-07-30T12:39:27.970Z,17.41
2023-07-30T12:41:55.754Z,17.04
2023-07-30T12:44:22.704Z,17.37
2023-07-30T12:46:49.672Z,17.30
2023-07-30T12:51:58.699Z,17.81
2023-07-30T12:54:25.498Z,18.12
2023-07-30T12:56:52.639Z,17.63
2023-07-30T12:59:19.312Z,17.60
2023-07-30T13:01:48.229Z,17.54
2023-07-30T13:04:15.566Z,17.57
2023-07-30T13:06:42.314Z,17.43
2023-07-30T13:09:08.885Z,17.56
2023-07-30T13:11:35.844Z,17.63
2023-07-30T13:14:04.883Z,17.37
2023-07-30T13:16:33.295Z,17.16
2023-07-30T13:19:00.237Z,17.32
2023-07-30T13:21:26.889Z,17.46
2023-07-30T13:23:53.880Z,17.08
2023-07-30T13:26:20.820Z,17.74
2023-07-30T13:28:47.487Z,18.26
2023-07-30T13:31:14.769Z,18.04
2023-07-30T13:33:41.496Z,18.16
2023-07-30T13:36:09.652Z,18.32
2023-07-30T13:38:36.303Z,18.20
2023-07-30T13:41:03.362Z,17.95
2023-07-30T13:43:30.008Z,18.08
2023-07-30T13:45:57.151Z,18.11
2023-07-30T13:48:23.939Z,17.75
2023-07-30T13:50:50.590Z,17.67
2023-07-30T13:53:17.253Z,17.35
2023-07-30T13:55:43.916Z,17.17
2023-07-30T13:58:10.575Z,17.61
2023-07-30T14:00:37.698Z,17.64
2023-07-30T14:03:04.472Z,17.79
2023-07-30T14:05:31.215Z,17.90
2023-07-30T14:07:57.919Z,17.67
2023-07-30T14:10:25.283Z,17.83
2023-07-30T14:12:51.974Z,17.86
2023-07-30T14:15:18.662Z,18.30
2023-07-30T14:17:45.470Z,18.31
2023-07-30T14:20:12.196Z,18.07
2023-07-30T14:22:38.878Z,17.84
2023-07-30T14:25:05.967Z,17.61
2023-07-30T14:27:33.200Z,17.50
2023-07-30T14:30:00.275Z,17.35
2023-07-30T14:32:27.151Z,17.17
2023-07-30T14:34:53.908Z,16.78
2023-07-30T14:37:22.141Z,16.93
2023-07-30T14:39:48.775Z,16.87
2023-07-30T14:42:15.435Z,16.76
2023-07-30T14:44:42.283Z,16.48
2023-07-30T14:47:09.625Z,16.73
2023-07-30T14:49:36.661Z,16.65
2023-07-30T14:52:03.279Z,16.61
2023-07-30T14:54:31.067Z,16.56
2023-07-30T14:56:57.714Z,16.67
2023-07-30T14:59:24.471Z,16.51
2023-07-30T15:01:51.078Z,16.47
2023-07-30T15:04:17.682Z,16.46
2023-07-30T15:06:44.346Z,16.68
2023-07-30T15:09:10.931Z,16.77
2023-07-30T15:11:37.911Z,17.17
2023-07-30T15:14:04.560Z,17.57
2023-07-30T15:16:31.196Z,17.93
2023-07-30T15:18:59.628Z,17.99
2023-07-30T15:21:26.724Z,18.05
2023-07-30T15:23:53.517Z,18.17
2023-07-30T15:26:21.484Z,18.03
2023-07-30T15:28:48.135Z,17.97
2023-07-30T15:31:14.934Z,17.77
2023-07-30T15:33:41.559Z,17.86
2023-07-30T15:36:08.218Z,17.77
2023-07-30T15:38:34.912Z,17.58
2023-07-30T15:41:01.696Z,17.54
2023-07-30T15:43:28.651Z,17.26
2023-07-30T15:46:02.504Z,17.69
2023-07-30T15:48:30.090Z,17.73
2023-07-30T15:50:56.719Z,17.95
2023-07-30T15:53:23.378Z,17.93
2023-07-30T15:55:50.002Z,18.09
2023-07-30T15:58:16.637Z,17.96
2023-07-30T16:00:43.402Z,18.19
2023-07-30T16:03:10.178Z,17.90
2023-07-30T16:05:37.009Z,18.11
2023-07-30T16:08:04.873Z,18.06
2023-07-30T16:10:31.541Z,17.99
2023-07-30T16:12:59.642Z,18.09
2023-07-30T16:15:28.421Z,17.98
2023-07-30T16:17:55.199Z,17.98
2023-07-30T16:20:21.921Z,17.93
2023-07-30T16:22:48.676Z,17.78
2023-07-30T16:25:15.433Z,17.70
2023-07-30T16:27:42.139Z,17.69
2023-07-30T16:30:09.419Z,17.53
2023-07-30T16:32:36.250Z,17.52
2023-07-30T16:35:03.155Z,17.63
2023-07-30T16:37:29.945Z,17.53
2023-07-30T16:39:56.767Z,17.57
2023-07-30T16:42:23.608Z,17.67
2023-07-30T16:48:56.451Z,17.62
2023-07-30T16:51:23.521Z,17.95
2023-07-30T16:56:26.188Z,17.92
2023-07-30T16:58:53.238Z,17.74
2023-07-30T17:01:23.200Z,17.77
2023-07-30T17:03:50.249Z,17.08
2023-07-30T17:06:17.564Z,17.45
2023-07-30T17:08:44.704Z,17.31
2023-07-30T17:11:11.684Z,17.09
2023-07-30T17:13:39.147Z,16.88
2023-07-30T17:16:10.011Z,16.84
2023-07-30T17:18:37.860Z,16.75
2023-07-30T17:21:05.637Z,16.63
2023-07-30T17:23:37.662Z,16.50
2023-07-30T17:26:13.997Z,16.47
2023-07-30T17:28:54.409Z,16.30
2023-07-30T17:31:48.443Z,16.28
2023-07-30T17:49:20.860Z,15.93
2023-07-30T17:51:51.572Z,15.92
2023-07-30T17:54:18.788Z,15.94
2023-07-30T17:56:45.500Z,15.76
2023-07-30T17:59:12.625Z,15.69
2023-07-30T18:01:41.131Z,15.43
2023-07-30T18:04:08.046Z,15.45
2023-07-30T18:06:34.992Z,15.58
2023-07-30T18:09:02.821Z,15.54
2023-07-30T18:11:30.003Z,15.57
2023-07-30T18:13:56.986Z,15.53
2023-07-30T18:16:25.527Z,15.48
2023-07-30T18:18:55.056Z,15.33
2023-07-30T18:21:22.095Z,15.31
2023-07-30T18:23:49.134Z,15.18
2023-07-30T18:26:15.869Z,15.10
2023-07-30T18:28:42.720Z,15.01
2023-07-30T18:31:09.865Z,14.97
2023-07-30T18:33:36.767Z,14.84
2023-07-30T18:36:03.668Z,14.79
2023-07-30T18:38:31.371Z,14.64
2023-07-30T18:41:04.741Z,14.57
2023-07-30T18:43:34.394Z,14.51
2023-07-30T18:46:01.695Z,14.42
2023-07-30T18:48:32.892Z,14.39
2023-07-30T18:51:00.059Z,14.31
2023-07-30T18:53:26.860Z,14.28
2023-07-30T18:55:53.725Z,14.19
2023-07-30T18:58:20.698Z,14.14
2023-07-30T19:00:48.588Z,14.07
2023-07-30T19:03:17.440Z,13.99
2023-07-30T19:05:50.817Z,13.94
2023-07-30T19:08:18.775Z,13.85
2023-07-30T19:10:47.638Z,13.74
2023-07-30T19:13:15.158Z,13.68
2023-07-30T19:15:41.919Z,13.63
2023-07-30T19:18:08.758Z,13.56
2023-07-30T19:20:35.517Z,13.51
2023-07-30T19:23:03.837Z,13.52
2023-07-30T19:25:30.588Z,13.46
2023-07-30T19:27:57.211Z,13.52
2023-07-30T19:30:25.889Z,13.49
2023-07-30T19:32:53.442Z,13.49
2023-07-30T19:35:20.173Z,13.27
2023-07-30T19:37:46.953Z,13.41
2023-07-30T19:40:13.828Z,13.50
2023-07-30T19:42:40.615Z,13.47
2023-07-30T19:45:08.630Z,13.48
2023-07-30T19:47:36.085Z,13.47
2023-07-30T19:50:05.042Z,13.45
2023-07-30T19:52:36.577Z,13.31
2023-07-30T19:55:03.855Z,13.37
2023-07-30T19:57:30.670Z,13.36
2023-07-30T19:59:58.719Z,13.42
2023-07-30T20:02:25.421Z,13.47
2023-07-30T20:04:52.168Z,13.42
2023-07-30T20:07:18.905Z,13.56
2023-07-30T20:09:48.155Z,13.58
2023-07-30T20:12:15.832Z,13.53
2023-07-30T20:14:43.048Z,13.72
2023-07-30T20:17:11.254Z,13.87
2023-07-30T20:19:40.482Z,13.84
2023-07-30T20:22:13.459Z,13.82
2023-07-30T20:24:41.073Z,13.92
2023-07-30T20:27:08.089Z,14.05
2023-07-30T20:29:37.938Z,14.08
2023-07-30T20:32:06.393Z,13.92
2023-07-30T20:34:33.380Z,14.08
2023-07-30T20:37:00.235Z,14.30
2023-07-30T20:39:27.338Z,14.35
2023-07-30T20:41:54.355Z,14.29
2023-07-30T20:44:21.035Z,14.44
2023-07-30T20:46:48.365Z,14.53
2023-07-30T20:49:15.866Z,14.55
2023-07-30T20:51:42.605Z,14.61
2023-07-30T20:54:10.958Z,14.78
2023-07-30T20:56:38.604Z,14.71
2023-07-30T20:59:05.988Z,14.80
2023-07-30T21:01:33.096Z,14.75
2023-07-30T21:04:00.206Z,14.67
2023-07-30T21:06:27.151Z,14.68
2023-07-30T21:08:54.057Z,14.79
2023-07-30T21:11:21.139Z,14.95
2023-07-30T21:13:48.158Z,14.97
2023-07-30T21:16:15.068Z,14.86
2023-07-30T21:18:42.159Z,14.99
2023-07-30T21:21:09.974Z,14.75
2023-07-30T21:23:37.019Z,14.79
2023-07-30T21:26:03.943Z,14.88
2023-07-30T21:28:31.206Z,14.97
2023-07-30T21:31:05.683Z,14.82
2023-07-30T21:33:33.703Z,14.94
2023-07-30T21:36:02.433Z,14.83
2023-07-30T21:38:29.671Z,14.84
2023-07-30T21:40:56.837Z,14.78
2023-07-30T21:43:25.143Z,14.67
2023-07-30T21:45:56.825Z,14.76
2023-07-30T21:48:25.000Z,14.91
2023-07-30T21:51:03.251Z,14.91
2023-07-30T21:53:31.725Z,14.84
2023-07-30T21:55:59.329Z,14.90
2023-07-30T21:58:26.681Z,14.93
2023-07-30T22:00:58.059Z,14.93
2023-07-30T22:03:26.435Z,14.91
2023-07-30T22:05:53.770Z,14.89
2023-07-30T22:08:21.203Z,14.81
2023-07-30T22:10:50.254Z,14.78
2023-07-30T22:13:18.394Z,14.77
2023-07-30T22:15:49.224Z,14.69
2023-07-30T22:18:16.618Z,14.63
2023-07-30T22:20:43.700Z,14.61
2023-07-30T22:23:10.733Z,14.38
2023-07-30T22:25:37.913Z,14.21
2023-07-30T22:28:10.060Z,14.19
2023-07-30T22:30:40.770Z,14.15
2023-07-30T22:33:07.821Z,14.11
2023-07-30T22:35:35.192Z,13.98
2023-07-30T22:38:02.307Z,13.92
2023-07-30T22:40:30.823Z,13.76
2023-07-30T22:42:57.943Z,13.75
2023-07-30T22:45:25.228Z,13.68
2023-07-30T22:47:52.269Z,13.60
2023-07-30T22:50:19.467Z,13.58
2023-07-30T22:52:46.415Z,13.56
2023-07-30T22:55:13.517Z,13.52
2023-07-30T22:57:40.620Z,13.45
2023-07-30T23:00:09.447Z,13.43
2023-07-30T23:02:36.479Z,13.44
2023-07-30T23:05:03.980Z,13.28
2023-07-30T23:07:31.200Z,13.35
2023-07-30T23:09:58.193Z,13.42
2023-07-30T23:12:25.052Z,13.44
2023-07-30T23:14:52.171Z,13.41
2023-07-30T23:17:19.150Z,13.37
2023-07-30T23:19:46.097Z,13.41
2023-07-30T23:22:13.255Z,13.43
2023-07-30T23:24:40.620Z,13.34
2023-07-30T23:27:07.598Z,13.46
2023-07-30T23:29:34.823Z,13.43
2023-07-30T23:32:01.906Z,13.44
2023-07-30T23:34:28.760Z,13.44
2023-07-30T23:36:56.285Z,13.45
2023-07-30T23:39:23.666Z,13.45
2023-07-30T23:41:50.658Z,13.45
2023-07-30T23:44:17.827Z,13.44
2023-07-30T23:46:46.640Z,13.45
2023-07-30T23:49:13.595Z,13.21
2023-07-30T23:51:40.580Z,13.38
2023-07-30T23:54:07.577Z,13.37
2023-07-30T23:56:34.459Z,13.45
2023-07-30T23:59:02.066Z,13.49
